createdAt,value
2019-02-03T00:02:16.561Z,93.42
2019-02-03T00:04:47.066Z,93.34
2019-02-03T00:07:17.683Z,93.16
2019-02-03T00:09:48.131Z,93.43
2019-02-03T00:12:18.617Z,93.49
2019-02-03T00:14:49.059Z,93.18
2019-02-03T00:17:19.699Z,93.44
2019-02-03T00:19:50.143Z,93.35
2019-02-03T00:22:20.599Z,93.66
2019-02-03T00:24:51.071Z,93.46
2019-02-03T00:27:21.527Z,93.31
2019-02-03T00:29:52.978Z,93.58
2019-02-03T00:32:23.423Z,93.50
2019-02-03T00:34:54.195Z,93.35
2019-02-03T00:37:24.676Z,93.56
2019-02-03T00:39:55.170Z,93.55
2019-02-03T00:42:25.689Z,93.30
2019-02-03T00:44:56.239Z,93.36
2019-02-03T00:47:26.688Z,93.28
2019-02-03T00:49:57.441Z,93.44
2019-02-03T00:52:27.892Z,93.65
2019-02-03T00:54:58.390Z,93.65
2019-02-03T00:57:28.843Z,93.45
2019-02-03T00:59:59.623Z,93.31
2019-02-03T01:02:30.399Z,93.03
2019-02-03T01:05:01.115Z,92.97
2019-02-03T01:07:31.610Z,93.22
2019-02-03T01:10:02.060Z,93.41
2019-02-03T01:12:33.531Z,93.60
2019-02-03T01:15:04.910Z,93.70
2019-02-03T01:17:35.354Z,93.47
2019-02-03T01:20:08.006Z,93.48
2019-02-03T01:22:38.525Z,92.96
2019-02-03T01:25:10.891Z,92.82
2019-02-03T01:27:41.443Z,92.88
2019-02-03T01:30:15.155Z,92.54
2019-02-03T01:32:45.643Z,92.69
2019-02-03T01:35:16.481Z,92.85
2019-02-03T01:37:47.135Z,92.86
2019-02-03T01:40:18.484Z,92.51
2019-02-03T01:42:49.699Z,92.75
2019-02-03T01:45:21.057Z,92.46
2019-02-03T01:47:51.509Z,92.23
2019-02-03T01:50:21.952Z,92.16
2019-02-03T01:52:52.769Z,92.11
2019-02-03T01:55:24.725Z,91.91
2019-02-03T01:57:55.595Z,92.07
2019-02-03T02:00:27.982Z,92.01
2019-02-03T02:02:59.008Z,92.04
2019-02-03T02:05:29.486Z,91.88
2019-02-03T02:07:59.934Z,92.24
2019-02-03T02:10:30.546Z,92.12
2019-02-03T02:13:01.014Z,91.72
2019-02-03T02:15:32.263Z,91.47
2019-02-03T02:18:02.735Z,91.54
2019-02-03T02:20:33.183Z,91.56
2019-02-03T02:23:03.749Z,92.08
2019-02-03T02:25:35.162Z,92.07
2019-02-03T02:28:06.264Z,92.20
2019-02-03T02:30:36.755Z,92.35
2019-02-03T02:33:07.193Z,92.07
2019-02-03T02:35:37.687Z,92.48
2019-02-03T02:38:08.477Z,92.11
2019-02-03T02:40:39.327Z,91.87
2019-02-03T02:43:10.076Z,92.06
2019-02-03T02:45:40.832Z,92.32
2019-02-03T02:48:11.486Z,91.81
2019-02-03T02:50:43.962Z,91.46
2019-02-03T02:53:14.781Z,91.76
2019-02-03T02:55:45.625Z,92.00
2019-02-03T02:58:16.363Z,92.05
2019-02-03T03:00:46.880Z,91.89
2019-02-03T03:03:17.328Z,91.73
2019-02-03T03:05:48.534Z,92.20
2019-02-03T03:08:19.883Z,92.01
2019-02-03T03:10:50.435Z,92.49
2019-02-03T03:13:20.911Z,92.10
2019-02-03T03:15:51.354Z,92.26
2019-02-03T03:18:22.567Z,92.51
2019-02-03T03:20:53.909Z,92.58
2019-02-03T03:23:24.363Z,92.71
2019-02-03T03:25:55.775Z,93.07
2019-02-03T03:28:26.228Z,93.17
2019-02-03T03:30:56.908Z,92.93
2019-02-03T03:33:27.362Z,92.69
2019-02-03T03:35:57.807Z,92.68
2019-02-03T03:38:32.314Z,92.75
2019-02-03T03:41:00.892Z,92.90
2019-02-03T03:43:32.316Z,92.38
2019-02-03T03:46:06.332Z,92.46
2019-02-03T03:48:35.510Z,92.22
2019-02-03T03:51:06.575Z,92.20
2019-02-03T03:53:37.019Z,92.04
2019-02-03T03:56:08.283Z,92.13
2019-02-03T03:58:38.730Z,91.91
2019-02-03T04:01:09.337Z,92.24
2019-02-03T04:03:39.854Z,91.96
2019-02-03T04:06:10.306Z,92.04
2019-02-03T04:08:45.326Z,92.51
2019-02-03T04:11:13.442Z,92.68
2019-02-03T04:13:43.884Z,92.30
2019-02-03T04:16:15.429Z,92.69
2019-02-03T04:18:45.869Z,92.90
2019-02-03T04:21:16.364Z,92.88
2019-02-03T04:23:47.082Z,92.49
2019-02-03T04:26:18.453Z,92.65
2019-02-03T04:28:48.927Z,92.89
2019-02-03T04:31:19.372Z,92.70
2019-02-03T04:33:49.859Z,92.77
2019-02-03T04:36:20.460Z,92.74
2019-02-03T04:38:58.413Z,92.88
2019-02-03T04:41:23.390Z,92.74
2019-02-03T04:43:53.930Z,92.86
2019-02-03T04:46:24.735Z,92.87
2019-02-03T04:48:55.242Z,92.99
2019-02-03T04:51:25.690Z,92.56
2019-02-03T04:53:56.562Z,92.78
2019-02-03T04:56:27.000Z,92.87
2019-02-03T04:58:57.875Z,92.58
2019-02-03T05:01:29.023Z,92.28
2019-02-03T05:03:59.611Z,92.34
2019-02-03T05:06:30.128Z,92.35
2019-02-03T05:09:10.794Z,92.51
2019-02-03T05:11:33.928Z,92.61
2019-02-03T05:14:04.575Z,92.61
2019-02-03T05:16:35.038Z,92.83
2019-02-03T05:19:06.305Z,92.87
2019-02-03T05:21:37.478Z,93.24
2019-02-03T05:24:07.954Z,93.34
2019-02-03T05:26:38.389Z,93.11
2019-02-03T05:29:08.954Z,92.77
2019-02-03T05:31:39.864Z,92.79
2019-02-03T05:34:11.110Z,92.78
2019-02-03T05:36:41.578Z,92.55
2019-02-03T05:39:23.872Z,92.65
2019-02-03T05:41:44.217Z,92.47
2019-02-03T05:44:14.662Z,92.52
2019-02-03T05:46:45.483Z,92.39
2019-02-03T05:49:16.322Z,92.13
2019-02-03T05:51:46.766Z,91.90
2019-02-03T05:54:17.559Z,91.60
2019-02-03T05:56:47.998Z,91.80
2019-02-03T05:59:18.626Z,91.62
2019-02-03T06:01:49.328Z,91.58
2019-02-03T06:04:20.162Z,91.48
2019-02-03T06:06:50.751Z,91.47
2019-02-03T06:09:21.185Z,91.22
2019-02-03T06:11:52.366Z,91.27
2019-02-03T06:14:22.834Z,91.17
2019-02-03T06:16:53.633Z,90.67
2019-02-03T06:19:24.132Z,90.97
2019-02-03T06:21:54.567Z,90.74
2019-02-03T06:24:25.958Z,90.94
2019-02-03T06:26:56.439Z,90.69
2019-02-03T06:29:26.874Z,90.72
2019-02-03T06:31:57.341Z,90.83
2019-02-03T06:34:28.106Z,90.65
2019-02-03T06:36:59.147Z,90.67
2019-02-03T06:39:29.957Z,90.44
2019-02-03T06:42:00.845Z,90.86
2019-02-03T06:44:31.290Z,90.86
2019-02-03T06:47:07.030Z,91.09
2019-02-03T06:49:39.478Z,90.92
2019-02-03T06:52:09.897Z,90.98
2019-02-03T06:54:40.366Z,90.97
2019-02-03T06:57:11.159Z,91.11
2019-02-03T06:59:50.378Z,91.23
2019-02-03T07:02:14.655Z,90.77
2019-02-03T07:04:45.822Z,90.69
2019-02-03T07:07:16.291Z,90.69
2019-02-03T07:09:47.120Z,90.54
2019-02-03T07:12:17.604Z,90.75
2019-02-03T07:14:48.318Z,90.87
2019-02-03T07:17:19.132Z,90.95
2019-02-03T07:19:50.037Z,91.18
2019-02-03T07:22:20.473Z,91.00
2019-02-03T07:24:50.970Z,91.15
2019-02-03T07:27:21.414Z,91.63
2019-02-03T07:29:52.166Z,91.29
2019-02-03T07:32:22.629Z,91.37
2019-02-03T07:34:53.121Z,91.49
2019-02-03T07:37:24.004Z,91.88
2019-02-03T07:39:54.428Z,91.72
2019-02-03T07:42:25.166Z,92.10
2019-02-03T07:44:55.742Z,92.09
2019-02-03T07:47:26.914Z,92.25
2019-02-03T07:49:57.404Z,92.53
2019-02-03T07:52:28.182Z,92.59
2019-02-03T07:54:58.624Z,92.69
2019-02-03T07:57:29.094Z,92.92
2019-02-03T07:59:59.882Z,92.61
2019-02-03T08:02:30.660Z,92.33
2019-02-03T08:05:01.124Z,91.98
2019-02-03T08:07:31.851Z,91.64
2019-02-03T08:10:02.687Z,91.48
2019-02-03T08:12:33.999Z,91.52
2019-02-03T08:15:06.503Z,91.14
2019-02-03T08:17:36.942Z,91.05
2019-02-03T08:20:10.372Z,91.16
2019-02-03T08:22:40.836Z,91.31
2019-02-03T08:25:12.948Z,90.91
2019-02-03T08:27:43.443Z,90.49
2019-02-03T08:30:16.702Z,90.64
2019-02-03T08:32:47.138Z,90.35
2019-02-03T08:35:19.890Z,90.02
2019-02-03T08:37:50.142Z,90.18
2019-02-03T08:40:21.173Z,89.91
2019-02-03T08:42:51.976Z,90.06
2019-02-03T08:45:22.660Z,89.94
2019-02-03T08:47:53.103Z,89.47
2019-02-03T08:50:23.646Z,89.26
2019-02-03T08:52:54.232Z,88.98
2019-02-03T08:55:24.671Z,88.63
2019-02-03T08:57:57.717Z,88.73
2019-02-03T09:00:28.753Z,88.47
2019-02-03T09:02:59.288Z,88.56
2019-02-03T09:05:30.555Z,88.21
2019-02-03T09:08:01.020Z,87.92
2019-02-03T09:10:31.461Z,88.07
2019-02-03T09:13:01.951Z,88.09
2019-02-03T09:15:32.397Z,87.73
2019-02-03T09:18:03.569Z,87.57
2019-02-03T09:20:34.628Z,87.77
2019-02-03T09:23:06.765Z,87.93
2019-02-03T09:25:37.565Z,87.75
2019-02-03T09:28:08.881Z,87.87
2019-02-03T09:30:40.223Z,87.71
2019-02-03T09:33:11.691Z,87.89
2019-02-03T09:35:42.141Z,87.97
2019-02-03T09:38:13.698Z,88.00
2019-02-03T09:40:44.154Z,88.34
2019-02-03T09:43:15.007Z,88.02
2019-02-03T09:45:45.461Z,87.69
2019-02-03T09:48:16.300Z,88.23
2019-02-03T09:50:46.790Z,87.68
2019-02-03T09:53:17.234Z,87.76
2019-02-03T09:55:48.046Z,87.58
2019-02-03T09:58:18.516Z,87.31
2019-02-03T10:00:48.960Z,87.25
2019-02-03T10:03:19.442Z,87.53
2019-02-03T10:05:49.880Z,87.32
2019-02-03T10:08:20.821Z,87.00
2019-02-03T10:10:51.370Z,87.31
2019-02-03T10:13:21.821Z,87.15
2019-02-03T10:15:52.763Z,86.97
2019-02-03T10:18:23.636Z,86.45
2019-02-03T10:20:54.139Z,86.36
2019-02-03T10:23:24.588Z,86.25
2019-02-03T10:25:55.533Z,86.25
2019-02-03T10:28:26.090Z,85.59
2019-02-03T10:30:56.646Z,85.50
2019-02-03T10:33:27.494Z,85.20
2019-02-03T10:35:58.325Z,85.47
2019-02-03T10:38:29.540Z,85.65
2019-02-03T10:41:00.335Z,86.04
2019-02-03T10:43:30.789Z,85.32
2019-02-03T10:46:01.238Z,85.13
2019-02-03T10:48:32.222Z,84.69
2019-02-03T10:51:03.146Z,84.90
2019-02-03T10:53:33.571Z,85.15
2019-02-03T10:56:05.263Z,84.73
2019-02-03T10:58:36.104Z,84.70
2019-02-03T11:01:06.925Z,84.99
2019-02-03T11:03:37.442Z,85.17
2019-02-03T11:06:08.934Z,85.16
2019-02-03T11:08:39.565Z,84.81
2019-02-03T11:11:10.058Z,84.88
2019-02-03T11:13:41.177Z,84.34
2019-02-03T11:16:11.645Z,84.52
2019-02-03T11:18:42.918Z,84.64
2019-02-03T11:21:13.364Z,84.78
2019-02-03T11:23:43.816Z,84.06
2019-02-03T11:26:14.399Z,84.02
2019-02-03T11:28:44.934Z,83.82
2019-02-03T11:31:15.386Z,83.73
2019-02-03T11:33:45.890Z,83.90
2019-02-03T11:36:16.360Z,84.04
2019-02-03T11:38:47.165Z,84.02
2019-02-03T11:41:17.663Z,83.28
2019-02-03T11:43:48.102Z,82.61
2019-02-03T11:46:18.543Z,83.01
2019-02-03T11:48:49.053Z,83.10
2019-02-03T11:51:19.493Z,83.02
2019-02-03T11:53:49.951Z,83.40
2019-02-03T11:56:21.014Z,82.73
2019-02-03T11:58:51.462Z,83.18
2019-02-03T12:01:22.309Z,83.59
2019-02-03T12:03:52.798Z,83.55
2019-02-03T12:06:23.249Z,83.49
2019-02-03T12:08:53.690Z,83.15
2019-02-03T12:11:24.182Z,82.97
2019-02-03T12:13:55.141Z,83.31
2019-02-03T12:16:25.962Z,83.73
2019-02-03T12:18:57.363Z,84.33
2019-02-03T12:21:30.029Z,84.29
2019-02-03T12:24:00.341Z,83.91
2019-02-03T12:26:31.265Z,84.26
2019-02-03T12:29:01.709Z,84.89
2019-02-03T12:31:32.705Z,84.61
2019-02-03T12:34:03.197Z,84.45
2019-02-03T12:36:34.649Z,84.95
2019-02-03T12:39:08.494Z,84.79
2019-02-03T12:41:39.848Z,84.86
2019-02-03T12:44:10.456Z,84.79
2019-02-03T12:46:41.370Z,84.27
2019-02-03T12:49:12.214Z,84.50
2019-02-03T12:51:43.535Z,84.60
2019-02-03T12:54:14.450Z,84.68
2019-02-03T12:56:44.898Z,84.36
2019-02-03T12:59:15.345Z,84.48
2019-02-03T13:01:46.222Z,84.19
2019-02-03T13:04:16.708Z,84.14
2019-02-03T13:06:47.161Z,84.05
2019-02-03T13:09:19.966Z,83.64
2019-02-03T13:11:50.452Z,83.41
2019-02-03T13:14:21.318Z,83.14
2019-02-03T13:16:51.822Z,83.09
2019-02-03T13:19:23.584Z,82.14
2019-02-03T13:21:54.808Z,81.52
2019-02-03T13:24:25.317Z,82.00
2019-02-03T13:26:56.163Z,82.00
2019-02-03T13:29:26.891Z,81.53
2019-02-03T13:32:10.165Z,81.53
2019-02-03T13:34:30.439Z,81.12
2019-02-03T13:37:01.358Z,80.84
2019-02-03T13:39:31.877Z,80.29
2019-02-03T13:42:02.329Z,80.07
2019-02-03T13:44:33.539Z,79.54
2019-02-03T13:47:04.338Z,80.03
2019-02-03T13:49:35.129Z,80.61
2019-02-03T13:52:06.159Z,81.46
2019-02-03T13:54:37.139Z,81.47
2019-02-03T13:57:07.612Z,82.58
2019-02-03T13:59:38.074Z,82.61
2019-02-03T14:02:09.381Z,82.74
2019-02-03T14:04:39.842Z,82.83
2019-02-03T14:07:12.474Z,83.03
2019-02-03T14:09:42.960Z,82.66
2019-02-03T14:12:13.459Z,83.20
2019-02-03T14:14:43.918Z,83.29
2019-02-03T14:17:14.422Z,82.90
2019-02-03T14:19:44.878Z,82.88
2019-02-03T14:22:16.405Z,83.02
2019-02-03T14:24:49.647Z,82.78
2019-02-03T14:27:20.118Z,82.27
2019-02-03T14:29:50.588Z,81.12
2019-02-03T14:32:21.478Z,81.39
2019-02-03T14:34:51.928Z,80.32
2019-02-03T14:37:22.689Z,79.92
2019-02-03T14:39:53.201Z,79.50
2019-02-03T14:42:24.372Z,79.52
2019-02-03T14:44:55.924Z,78.67
2019-02-03T14:47:26.865Z,78.86
2019-02-03T14:49:58.016Z,78.94
2019-02-03T14:52:28.634Z,78.04
2019-02-03T14:54:59.505Z,77.42
2019-02-03T14:57:30.628Z,76.59
2019-02-03T15:00:01.086Z,77.29
2019-02-03T15:02:31.607Z,77.84
2019-02-03T15:05:02.044Z,77.90
2019-02-03T15:07:37.660Z,77.74
2019-02-03T15:10:05.902Z,78.60
2019-02-03T15:12:36.350Z,79.87
2019-02-03T15:15:09.262Z,78.98
2019-02-03T15:17:40.206Z,78.68
2019-02-03T15:20:13.308Z,79.47
2019-02-03T15:22:43.765Z,79.74
2019-02-03T15:25:15.237Z,79.11
2019-02-03T15:27:46.026Z,79.37
2019-02-03T15:30:22.665Z,79.37
2019-02-03T15:32:53.117Z,79.54
2019-02-03T15:35:24.007Z,78.59
2019-02-03T15:37:54.493Z,78.55
2019-02-03T15:40:24.959Z,78.51
2019-02-03T15:42:55.537Z,78.34
2019-02-03T15:45:26.211Z,79.16
2019-02-03T15:47:56.688Z,79.64
2019-02-03T15:50:28.856Z,79.75
2019-02-03T15:52:59.780Z,79.61
2019-02-03T15:55:31.580Z,79.83
2019-02-03T15:58:02.536Z,79.77
2019-02-03T16:00:35.376Z,80.03
2019-02-03T16:03:08.700Z,80.24
2019-02-03T16:05:39.977Z,80.30
2019-02-03T16:08:11.469Z,80.00
2019-02-03T16:10:42.978Z,80.25
2019-02-03T16:13:15.220Z,80.45
2019-02-03T16:15:46.175Z,80.45
2019-02-03T16:18:17.527Z,80.61
2019-02-03T16:20:48.150Z,80.88
2019-02-03T16:23:19.415Z,81.41
2019-02-03T16:25:49.865Z,81.26
2019-02-03T16:28:20.308Z,81.17
2019-02-03T16:30:51.577Z,81.42
2019-02-03T16:33:22.217Z,81.59
2019-02-03T16:35:52.659Z,81.70
2019-02-03T16:38:24.111Z,82.07
2019-02-03T16:40:55.605Z,82.04
2019-02-03T16:43:26.448Z,82.04
2019-02-03T16:45:59.271Z,82.20
2019-02-03T16:48:30.389Z,82.38
2019-02-03T16:51:00.854Z,82.68
2019-02-03T16:53:32.051Z,82.50
2019-02-03T16:56:02.998Z,82.54
2019-02-03T16:58:33.755Z,83.24
2019-02-03T17:01:05.159Z,83.50
2019-02-03T17:03:35.659Z,83.96
2019-02-03T17:06:06.449Z,83.82
2019-02-03T17:08:37.473Z,84.40
2019-02-03T17:11:08.737Z,84.16
2019-02-03T17:13:39.161Z,84.24
2019-02-03T17:16:10.013Z,84.68
2019-02-03T17:18:40.470Z,84.75
2019-02-03T17:21:11.589Z,85.22
2019-02-03T17:23:43.244Z,85.25
2019-02-03T17:26:13.994Z,84.97
2019-02-03T17:28:44.448Z,85.03
2019-02-03T17:31:14.945Z,85.28
2019-02-03T17:33:46.655Z,85.60
2019-02-03T17:36:17.700Z,85.80
2019-02-03T17:38:48.589Z,85.79
2019-02-03T17:41:19.042Z,85.64
2019-02-03T17:43:49.647Z,85.49
2019-02-03T17:46:20.135Z,85.78
2019-02-03T17:48:50.999Z,85.60
2019-02-03T17:51:23.541Z,85.84
2019-02-03T17:53:54.402Z,85.97
2019-02-03T17:56:25.169Z,86.14
2019-02-03T17:58:57.238Z,86.35
2019-02-03T18:01:27.812Z,86.37
2019-02-03T18:03:58.248Z,86.32
2019-02-03T18:06:28.699Z,86.41
2019-02-03T18:08:59.254Z,86.61
2019-02-03T18:11:29.818Z,86.91
2019-02-03T18:14:00.545Z,86.60
2019-02-03T18:16:31.025Z,86.56
2019-02-03T18:19:02.260Z,86.65
2019-02-03T18:21:32.792Z,87.04
2019-02-03T18:24:03.619Z,87.02
2019-02-03T18:26:37.542Z,86.97
2019-02-03T18:29:08.338Z,87.30
2019-02-03T18:31:39.896Z,87.24
2019-02-03T18:34:10.949Z,87.61
2019-02-03T18:36:41.394Z,87.35
2019-02-03T18:39:11.949Z,87.34
2019-02-03T18:41:42.741Z,87.21
2019-02-03T18:44:13.313Z,87.12
2019-02-03T18:46:43.841Z,86.92
2019-02-03T18:49:14.303Z,86.90
2019-02-03T18:51:45.121Z,87.12
2019-02-03T18:54:15.983Z,87.16
2019-02-03T18:56:47.122Z,87.29
2019-02-03T18:59:17.585Z,87.26
2019-02-03T19:01:48.105Z,87.09
2019-02-03T19:04:18.823Z,86.90
2019-02-03T19:06:49.629Z,87.28
2019-02-03T19:09:20.145Z,86.86
2019-02-03T19:11:51.030Z,86.87
2019-02-03T19:14:22.976Z,87.04
2019-02-03T19:16:54.466Z,86.77
2019-02-03T19:19:25.186Z,87.08
2019-02-03T19:21:55.633Z,87.46
2019-02-03T19:24:26.492Z,87.47
2019-02-03T19:26:57.640Z,87.42
2019-02-03T19:29:28.449Z,87.20
2019-02-03T19:31:58.958Z,87.31
2019-02-03T19:34:29.746Z,87.17
2019-02-03T19:37:05.554Z,87.21
2019-02-03T19:39:32.736Z,87.20
2019-02-03T19:42:03.472Z,87.20
2019-02-03T19:44:34.329Z,87.60
2019-02-03T19:47:05.417Z,87.47
2019-02-03T19:49:45.993Z,87.77
2019-02-03T19:52:08.587Z,87.67
2019-02-03T19:54:40.042Z,87.42
2019-02-03T19:57:10.634Z,87.54
2019-02-03T19:59:46.848Z,87.39
2019-02-03T20:02:13.317Z,86.98
2019-02-03T20:04:50.932Z,87.24
2019-02-03T20:07:21.744Z,87.52
2019-02-03T20:09:52.565Z,87.34
2019-02-03T20:12:24.260Z,87.70
2019-02-03T20:14:54.914Z,87.93
2019-02-03T20:17:25.861Z,88.16
2019-02-03T20:19:56.726Z,87.65
2019-02-03T20:22:27.968Z,87.67
2019-02-03T20:24:58.453Z,88.06
2019-02-03T20:27:28.956Z,87.76
2019-02-03T20:29:59.422Z,87.52
2019-02-03T20:32:29.933Z,87.26
2019-02-03T20:35:00.971Z,87.62
2019-02-03T20:37:31.915Z,87.67
2019-02-03T20:40:02.982Z,87.84
2019-02-03T20:42:33.550Z,87.90
2019-02-03T20:45:04.947Z,88.10
2019-02-03T20:47:38.092Z,87.92
2019-02-03T20:50:11.326Z,87.95
2019-02-03T20:52:42.164Z,87.67
2019-02-03T20:55:13.351Z,88.16
2019-02-03T20:57:44.292Z,88.33
2019-02-03T21:00:20.453Z,88.62
2019-02-03T21:02:51.203Z,88.45
2019-02-03T21:05:21.742Z,88.28
2019-02-03T21:07:52.665Z,87.61
2019-02-03T21:10:23.408Z,87.86
2019-02-03T21:12:54.272Z,87.56
2019-02-03T21:15:33.538Z,87.78
2019-02-03T21:17:58.361Z,88.03
2019-02-03T21:20:31.045Z,87.97
2019-02-03T21:23:02.000Z,88.14
2019-02-03T21:25:32.447Z,88.00
2019-02-03T21:28:03.023Z,88.04
2019-02-03T21:30:35.975Z,87.69
2019-02-03T21:33:07.433Z,87.95
2019-02-03T21:35:37.868Z,88.53
2019-02-03T21:38:09.988Z,88.39
2019-02-03T21:40:40.452Z,88.50
2019-02-03T21:43:11.393Z,88.65
2019-02-03T21:45:45.045Z,88.52
2019-02-03T21:48:14.362Z,88.62
2019-02-03T21:50:44.868Z,88.04
2019-02-03T21:53:15.366Z,88.16
2019-02-03T21:55:46.204Z,87.97
2019-02-03T21:58:16.702Z,87.93
2019-02-03T22:00:47.138Z,87.75
2019-02-03T22:03:17.904Z,87.27
2019-02-03T22:05:48.382Z,87.67
2019-02-03T22:08:19.584Z,87.63
2019-02-03T22:10:50.074Z,87.55
2019-02-03T22:13:20.542Z,87.27
2019-02-03T22:15:55.910Z,87.24
2019-02-03T22:18:23.328Z,87.70
2019-02-03T22:20:53.746Z,88.01
2019-02-03T22:23:24.229Z,88.28
2019-02-03T22:25:55.043Z,87.78
2019-02-03T22:28:25.487Z,88.09
2019-02-03T22:30:55.959Z,88.52
2019-02-03T22:33:26.394Z,88.59
2019-02-03T22:35:57.221Z,88.64
2019-02-03T22:38:27.657Z,88.66
2019-02-03T22:40:58.101Z,88.79
2019-02-03T22:43:29.493Z,88.68
2019-02-03T22:46:06.863Z,88.74
2019-02-03T22:48:32.114Z,88.68
2019-02-03T22:51:03.346Z,88.85
2019-02-03T22:53:34.106Z,88.67
2019-02-03T22:56:04.784Z,88.88
2019-02-03T22:58:35.648Z,89.18
2019-02-03T23:01:19.835Z,88.73
2019-02-03T23:03:59.009Z,89.10
2019-02-03T23:06:31.161Z,89.35
2019-02-03T23:09:05.360Z,89.30
2019-02-03T23:11:35.996Z,89.40
2019-02-03T23:14:06.880Z,89.52
2019-02-03T23:16:37.319Z,89.24
2019-02-03T23:19:07.785Z,89.36
2019-02-03T23:21:38.227Z,89.29
2019-02-03T23:24:09.214Z,88.98
2019-02-03T23:26:39.817Z,88.88
2019-02-03T23:29:10.527Z,89.13
2019-02-03T23:31:41.341Z,89.02
2019-02-03T23:34:12.062Z,89.27
2019-02-03T23:36:42.895Z,89.21
2019-02-03T23:39:14.407Z,89.23
2019-02-03T23:41:45.007Z,89.34
2019-02-03T23:44:15.529Z,89.73
2019-02-03T23:46:46.342Z,89.59
2019-02-03T23:49:17.906Z,89.48
2019-02-03T23:51:48.340Z,89.58
2019-02-03T23:54:18.786Z,89.50
2019-02-03T23:56:49.610Z,89.55
2019-02-03T23:59:20.432Z,89.59
